Gosnells City, Western Australia

7:17 AM AWST on February 09, 2016 (GMT +0800)
Thornlie (Crestwood) | | Change Station
CLOSE
Current Station
Personal Weather Station
Location: Perth, WESTERN AUSTRALIA
Elevation: 99 ft
Nearby Weather Stations

Elev 99 ft 32.06 °S, 115.96 °E | Updated 6 minutes ago

Clear
Clear
85.8 °F
Feels Like 83 °F
N
0.7
Wind Variable Wind from East
Gusts 0.7 mph

Today
High -- | Low -- °F
--% Chance of Precip.
Yesterday
High -- | Low -- °F
Precip. -- in
Pressure 29.95 in
Visibility -9999.0 miles
Clouds
Heat Index 83 °F
Dew Point 46 °F
Humidity 25%
Rainfall 0.00 in
Snow Depth Not available.
5:47 AM 7:12 PM
New Moon, 0% visible
METAR YPPH 082300Z 09008KT CAVOK 27/04 Q1014 NOSIG
Pressure 29.95 in
Visibility -9999.0 miles
Clouds
Heat Index 83 °F
Dew Point 46 °F
Humidity 25%
Rainfall 0.00 in
Snow Depth Not available.
5:47 AM 7:12 PM
New Moon, 0% visible
METAR YPPH 082300Z 09008KT CAVOK 27/04 Q1014 NOSIG

10-Day Weather Forecast

Almanac

Astronomy

Feb. 09, 2016 Rise Set
Actual Time
Civil Twilight
Nautical Twilight
Astronomical Twilight
Moon
Length of Visible Light
Length of Day
Tomorrow will be .
, % of the Moon is Illuminated

Today's Extremes

Country Highs Country Lows

Community

WunderPhotos

Upload Photos

1,891,525 photos uploaded!

WunderBlog® & News

Nearby

Air Quality

  Air Quality AQ Index Pollutant
Not available.

Snow Depth

Station Depth Elevation

Earthquake Activity

City Distance Mag. Time & Date
Minimum magnitude displayed is 2.5.

Coastal Water Temperatures

Place Temperature

Stations

Nearby Weather Stations

Station Location Temp. Windchill Dew Point Humidity Wind Precip. Elev Updated Type